Time;durP1;ratioP1;P1;durP2;ratioP2;P2;SDS_P1;SDS_P2;PMS_P1;PMS_P2;Temp;Humidity;BMP_temperature;BMP_pressure;BME280_temperature;BME280_humidity;BME280_pressure;Samples;Min_cycle;Max_cycle;Signal;HPM_P1;HPM_P2
2023/05/20 00:00:40;;;;;;;;;;;;;;;18.01;46.91;102478.13;7348381;19;19982;-66
2023/05/20 00:03:05;;;;;;;;;;;;;;;17.97;47.39;102479.97;7347691;19;19990;-65
2023/05/20 00:05:30;;;;;;;;;;;;;;;17.96;47.01;102490.59;7342999;19;19915;-66
2023/05/20 00:07:56;;;;;;;;;;;;;;;17.93;47.16;102474.78;7348695;19;19927;-63
2023/05/20 00:10:21;;;;;;;;;;;;;;;17.90;47.25;102478.41;7348267;19;19926;-66
2023/05/20 00:12:46;;;;;;;;;;;;;;;17.87;47.61;102474.03;7349680;19;20085;-65
2023/05/20 00:15:12;;;;;;;;;;;;;;;17.86;47.29;102469.66;7353143;19;20462;-65
2023/05/20 00:17:37;;;;;;;;;;;;;;;17.84;47.65;102470.59;7352044;19;19927;-65
2023/05/20 00:20:04;;;;;;;;;;;;;;;17.81;47.42;102466.25;7344727;19;19927;-66
2023/05/20 00:22:29;;;;;;;;;;;;;;;17.78;47.67;102468.97;7351181;19;19926;-66
2023/05/20 00:24:54;;;;;;;;;;;;;;;17.76;47.40;102462.88;7350110;19;19919;-66
2023/05/20 00:27:20;;;;;;;;;;;;;;;17.74;47.75;102469.97;7352383;19;19926;-66
2023/05/20 00:29:45;;;;;;;;;;;;;;;17.72;47.99;102477.03;7347764;19;20277;-66
2023/05/20 00:32:10;;;;;;;;;;;;;;;17.70;47.51;102478.84;7349716;19;19926;-66
2023/05/20 00:34:36;;;;;;;;;;;;;;;17.68;47.62;102471.84;7352006;19;20023;-66
2023/05/20 00:37:01;;;;;;;;;;;;;;;17.64;47.73;102471.06;7352025;19;19966;-66
2023/05/20 00:39:26;;;;;;;;;;;;;;;17.62;48.17;102467.59;7351758;19;20616;-66
2023/05/20 00:41:51;;;;;;;;;;;;;;;17.59;48.17;102459.75;7349674;19;20404;-66
2023/05/20 00:44:17;;;;;;;;;;;;;;;17.58;48.18;102463.25;7350530;19;19938;-65
2023/05/20 00:46:43;;;;;;;;;;;;;;;17.56;48.33;102465.09;7351267;19;20049;-66
2023/05/20 00:49:08;;;;;;;;;;;;;;;17.54;48.14;102461.63;7352277;19;19926;-66
2023/05/20 00:51:33;;;;;;;;;;;;;;;17.53;48.40;102454.59;7351447;19;19946;-65
2023/05/20 00:53:59;;;;;;;;;;;;;;;17.51;48.00;102453.75;7354438;19;19925;-66
2023/05/20 00:56:25;;;;;;;;;;;;;;;17.50;48.51;102454.69;7353272;19;19995;-65
2023/05/20 00:58:50;;;;;;;;;;;;;;;17.49;48.10;102463.50;7354867;19;19918;-67
2023/05/20 01:01:15;;;;;;;;;;;;;;;17.23;48.18;102414.78;7351185;19;19931;-65
2023/05/20 01:03:41;;;;;;;;;;;;;;;17.46;48.12;102455.66;7340737;19;19914;-66
2023/05/20 01:06:06;;;;;;;;;;;;;;;17.46;48.63;102463.56;7332164;19;19923;-66
2023/05/20 01:08:33;;;;;;;;;;;;;;;17.44;48.26;102454.81;7338674;19;19937;-65
2023/05/20 01:11:04;;;;;;;;;;;;;;;17.44;48.40;102444.25;7336795;19;19935;-66
2023/05/20 01:13:32;;;;;;;;;;;;;;;17.42;48.41;102438.13;7340226;19;19921;-65
2023/05/20 01:15:59;;;;;;;;;;;;;;;17.40;48.81;102442.59;7341302;19;20630;-66
2023/05/20 01:18:28;;;;;;;;;;;;;;;17.38;48.44;102440.81;7338361;19;20429;-66
2023/05/20 01:20:54;;;;;;;;;;;;;;;17.40;48.85;102437.31;7332656;19;19998;-66
2023/05/20 01:23:20;;;;;;;;;;;;;;;17.38;48.71;102438.19;7335968;19;19979;-66
2023/05/20 01:25:45;;;;;;;;;;;;;;;17.37;49.03;102433.81;7347544;19;20464;-66
2023/05/20 01:28:16;;;;;;;;;;;;;;;17.36;49.01;102429.44;7343883;19;19926;-66
2023/05/20 01:30:47;;;;;;;;;;;;;;;17.35;48.73;102425.06;7343462;19;20446;-65
2023/05/20 01:33:14;;;;;;;;;;;;;;;17.35;49.11;102430.34;7337622;19;19926;-67
2023/05/20 01:35:40;;;;;;;;;;;;;;;17.34;48.82;102428.63;7343809;19;19936;-66
2023/05/20 01:38:06;;;;;;;;;;;;;;;17.32;49.16;102425.13;7345802;19;20320;-65
2023/05/20 01:40:32;;;;;;;;;;;;;;;17.32;49.12;102417.22;7349786;19;19919;-65
2023/05/20 01:42:58;;;;;;;;;;;;;;;17.33;49.35;102415.44;7346629;19;19923;-65
2023/05/20 01:45:24;;;;;;;;;;;;;;;17.32;49.04;102419.84;7349175;19;19932;-66
2023/05/20 01:47:49;;;;;;;;;;;;;;;17.32;49.35;102419.84;7358780;19;20010;-65
2023/05/20 01:50:14;;;;;;;;;;;;;;;17.30;49.42;102421.66;7352315;19;20566;-66
2023/05/20 01:52:40;;;;;;;;;;;;;;;17.30;49.38;102416.38;7347555;19;19943;-66
2023/05/20 01:55:05;;;;;;;;;;;;;;;17.30;49.02;102415.53;7347810;19;19923;-65
2023/05/20 01:57:30;;;;;;;;;;;;;;;17.30;49.55;102413.75;7351953;19;20011;-66
2023/05/20 01:59:55;;;;;;;;;;;;;;;17.29;49.09;102414.66;7330218;19;20277;-65
2023/05/20 02:02:21;;;;;;;;;;;;;;;17.28;49.32;102418.19;7352992;19;19923;-66
2023/05/20 02:04:47;;;;;;;;;;;;;;;17.29;49.56;102414.66;7337891;19;19940;-66
2023/05/20 02:07:13;;;;;;;;;;;;;;;17.27;49.43;102405.88;7337760;19;20716;-65
2023/05/20 02:09:39;;;;;;;;;;;;;;;17.27;49.55;102405.88;7343114;19;20537;-66
2023/05/20 02:12:05;;;;;;;;;;;;;;;17.27;49.22;102412.94;7346576;19;19945;-66
2023/05/20 02:14:30;;;;;;;;;;;;;;;17.25;49.37;102407.72;7344958;19;19946;-66
2023/05/20 02:16:56;;;;;;;;;;;;;;;17.25;49.62;102412.13;7333270;19;19995;-66
2023/05/20 02:19:22;;;;;;;;;;;;;;;17.24;49.31;102411.25;7344044;19;19936;-66
2023/05/20 02:21:48;;;;;;;;;;;;;;;17.24;49.43;102400.69;7345314;19;20600;-66
2023/05/20 02:24:13;;;;;;;;;;;;;;;17.23;49.79;102398.94;7346540;19;19972;-66
2023/05/20 02:26:38;;;;;;;;;;;;;;;17.23;49.60;102392.78;7343389;19;20658;-66
2023/05/20 02:29:04;;;;;;;;;;;;;;;17.22;49.83;102391.94;7347029;19;19934;-66
2023/05/20 02:31:29;;;;;;;;;;;;;;;17.22;49.78;102397.22;7345272;19;19953;-65
2023/05/20 02:33:54;;;;;;;;;;;;;;;17.19;49.86;102386.75;7333438;19;19925;-66
2023/05/20 02:36:20;;;;;;;;;;;;;;;17.18;49.88;102400.81;7338293;19;20338;-65
2023/05/20 02:38:45;;;;;;;;;;;;;;;17.17;49.88;102388.53;7338359;19;19919;-65
2023/05/20 02:41:10;;;;;;;;;;;;;;;17.15;49.81;102395.63;7333621;19;19927;-65
2023/05/20 02:43:35;;;;;;;;;;;;;;;17.14;49.97;102393.03;7344358;19;19938;-65
2023/05/20 02:46:01;;;;;;;;;;;;;;;17.12;50.02;102408.88;7352811;19;19926;-66
2023/05/20 02:48:27;;;;;;;;;;;;;;;17.09;49.88;102396.63;7349217;19;19938;-65
2023/05/20 02:50:52;;;;;;;;;;;;;;;17.08;49.58;102389.63;7353605;19;19926;-67
2023/05/20 02:53:18;;;;;;;;;;;;;;;17.06;49.78;102390.56;7342126;19;20101;-66
2023/05/20 02:55:46;;;;;;;;;;;;;;;17.05;49.92;102388.81;7340686;19;19914;-65
2023/05/20 02:58:12;;;;;;;;;;;;;;;17.02;50.07;102388.88;7333604;19;20260;-66
2023/05/20 03:00:39;;;;;;;;;;;;;;;17.00;49.79;102388.94;7334287;19;19914;-65
2023/05/20 03:03:05;;;;;;;;;;;;;;;16.99;50.26;102386.31;7336289;19;19943;-66
2023/05/20 03:05:31;;;;;;;;;;;;;;;16.96;49.94;102373.19;7334807;19;19918;-65
2023/05/20 03:07:57;;;;;;;;;;;;;;;16.94;49.83;102380.28;7348129;19;19919;-66
2023/05/20 03:10:22;;;;;;;;;;;;;;;16.91;50.21;102373.28;7339997;19;20288;-66
2023/05/20 03:12:48;;;;;;;;;;;;;;;16.91;49.95;102364.50;7350817;19;19927;-66
2023/05/20 03:15:13;;;;;;;;;;;;;;;16.86;50.28;102368.13;7344839;19;19946;-66
2023/05/20 03:17:39;;;;;;;;;;;;;;;16.85;50.38;102366.38;7346447;19;20661;-65
2023/05/20 03:20:06;;;;;;;;;;;;;;;16.84;50.12;102363.78;7335440;19;19915;-66
2023/05/20 03:22:31;;;;;;;;;;;;;;;16.81;50.57;102367.34;7315117;19;19926;-65
2023/05/20 03:24:57;;;;;;;;;;;;;;;16.80;50.46;102365.63;7344192;19;19926;-66
2023/05/20 03:27:25;;;;;;;;;;;;;;;16.79;50.22;102366.53;7349183;19;19950;-66
2023/05/20 03:29:50;;;;;;;;;;;;;;;16.76;50.45;102353.38;7352029;19;19922;-65
2023/05/20 03:32:15;;;;;;;;;;;;;;;16.74;50.61;102352.56;7348521;19;19923;-66
2023/05/20 03:34:41;;;;;;;;;;;;;;;16.72;50.21;102349.06;7346568;19;19918;-65
2023/05/20 03:37:06;;;;;;;;;;;;;;;16.70;50.36;102350.84;7346345;19;19942;-67
2023/05/20 03:39:32;;;;;;;;;;;;;;;16.67;50.67;102350.91;7346394;19;19942;-65
2023/05/20 03:41:57;;;;;;;;;;;;;;;16.67;50.30;102361.47;7343770;19;19942;-65
2023/05/20 03:44:22;;;;;;;;;;;;;;;16.66;50.81;102356.22;7348832;19;20027;-66
2023/05/20 03:46:47;;;;;;;;;;;;;;;16.64;50.73;102355.41;7346186;19;19942;-65
2023/05/20 03:49:13;;;;;;;;;;;;;;;16.63;50.62;102349.28;7340211;19;20286;-66
2023/05/20 03:51:38;;;;;;;;;;;;;;;16.61;50.51;102343.13;7348179;19;19931;-66
2023/05/20 03:54:03;;;;;;;;;;;;;;;16.60;50.47;102336.13;7336678;19;20206;-66
2023/05/20 03:56:28;;;;;;;;;;;;;;;16.58;50.83;102340.59;7342535;19;19915;-67
2023/05/20 03:58:53;;;;;;;;;;;;;;;16.57;50.63;102338.81;7346738;19;19918;-65
2023/05/20 04:01:20;;;;;;;;;;;;;;;16.55;51.04;102345.91;7345953;19;19938;-65
2023/05/20 04:03:45;;;;;;;;;;;;;;;16.54;50.96;102341.53;7351660;19;19934;-66
2023/05/20 04:06:10;;;;;;;;;;;;;;;16.52;51.04;102335.41;7355718;19;19998;-65
2023/05/20 04:08:35;;;;;;;;;;;;;;;16.50;51.10;102346.00;7357264;19;20344;-66
2023/05/20 04:11:01;;;;;;;;;;;;;;;16.49;51.10;102346.06;7354791;19;20268;-65
2023/05/20 04:13:27;;;;;;;;;;;;;;;16.43;51.16;102327.72;7355757;19;19910;-66
2023/05/20 04:15:52;;;;;;;;;;;;;;;16.47;51.12;102347.84;7357299;19;19922;-66
2023/05/20 04:18:17;;;;;;;;;;;;;;;16.46;51.27;102346.09;7358502;19;21016;-66
2023/05/20 04:20:43;;;;;;;;;;;;;;;16.44;50.74;102346.16;7353463;19;19926;-66
2023/05/20 04:23:08;;;;;;;;;;;;;;;16.43;50.75;102340.91;7358243;19;19926;-65
2023/05/20 04:25:34;;;;;;;;;;;;;;;16.42;51.17;102332.09;7360769;19;20309;-65
2023/05/20 04:28:00;;;;;;;;;;;;;;;16.41;51.01;102332.16;7362047;19;20623;-65
2023/05/20 04:30:25;;;;;;;;;;;;;;;16.40;51.24;102330.41;7359864;19;19922;-65
2023/05/20 04:32:50;;;;;;;;;;;;;;;16.39;51.03;102328.69;7364272;19;19933;-65
2023/05/20 04:35:16;;;;;;;;;;;;;;;16.37;51.24;102333.97;7360263;19;19940;-66
2023/05/20 04:37:43;;;;;;;;;;;;;;;16.37;51.19;102341.00;7359871;19;19911;-65
2023/05/20 04:40:09;;;;;;;;;;;;;;;16.33;51.13;102335.81;7359630;19;20002;-66
2023/05/20 04:42:34;;;;;;;;;;;;;;;16.32;51.21;102336.72;7363220;19;19934;-67
2023/05/20 04:45:00;;;;;;;;;;;;;;;16.31;51.14;102348.16;7361164;19;19923;-65
2023/05/20 04:47:28;;;;;;;;;;;;;;;16.30;51.08;102343.78;7360767;19;20400;-66
2023/05/20 04:49:56;;;;;;;;;;;;;;;16.29;51.49;102341.19;7358789;19;19925;-66
2023/05/20 04:52:22;;;;;;;;;;;;;;;16.19;51.35;102322.06;7359657;19;19975;-63
2023/05/20 04:54:49;;;;;;;;;;;;;;;16.28;51.32;102334.19;7361112;19;19960;-65
2023/05/20 04:57:15;;;;;;;;;;;;;;;16.27;51.58;102329.78;7359973;19;19931;-65
2023/05/20 04:59:40;;;;;;;;;;;;;;;16.27;51.28;102338.59;7357689;19;20219;-66
2023/05/20 05:02:06;;;;;;;;;;;;;;;16.26;51.39;102338.59;7358983;19;19950;-65
2023/05/20 05:04:31;;;;;;;;;;;;;;;16.26;51.72;102339.47;7361462;19;20335;-65
2023/05/20 05:06:56;;;;;;;;;;;;;;;16.25;51.35;102332.47;7361874;19;19929;-67
2023/05/20 05:09:21;;;;;;;;;;;;;;;16.26;51.36;102334.19;7357465;19;20265;-66
2023/05/20 05:11:46;;;;;;;;;;;;;;;16.25;51.70;102332.47;7360089;19;20622;-65
2023/05/20 05:14:12;;;;;;;;;;;;;;;16.25;51.86;102335.09;7361370;19;19958;-65
2023/05/20 05:16:37;;;;;;;;;;;;;;;16.25;51.45;102332.47;7360913;19;19914;-65
2023/05/20 05:19:02;;;;;;;;;;;;;;;16.26;51.42;102335.97;7360881;19;19918;-65
2023/05/20 05:21:27;;;;;;;;;;;;;;;16.27;51.48;102335.97;7358271;19;19949;-66
2023/05/20 05:23:53;;;;;;;;;;;;;;;16.26;51.48;102336.84;7361747;19;19938;-65
2023/05/20 05:26:18;;;;;;;;;;;;;;;16.27;51.49;102335.97;7358135;19;19923;-65
2023/05/20 05:28:43;;;;;;;;;;;;;;;16.27;51.56;102330.69;7362527;19;19923;-65
2023/05/20 05:31:09;;;;;;;;;;;;;;;16.28;51.78;102328.91;7354079;19;19928;-65
2023/05/20 05:33:34;;;;;;;;;;;;;;;16.28;51.94;102327.16;7361645;19;19923;-65
2023/05/20 05:36:01;;;;;;;;;;;;;;;16.28;51.58;102332.41;7357461;19;19954;-65
2023/05/20 05:38:26;;;;;;;;;;;;;;;16.29;51.91;102328.88;7359360;19;19930;-66
2023/05/20 05:40:52;;;;;;;;;;;;;;;16.30;51.81;102329.72;7356091;19;19931;-67
2023/05/20 05:43:17;;;;;;;;;;;;;;;16.30;51.85;102335.88;7361822;19;19926;-65
2023/05/20 05:45:42;;;;;;;;;;;;;;;16.30;52.13;102341.16;7359665;19;21843;-65
2023/05/20 05:48:07;;;;;;;;;;;;;;;16.32;52.11;102338.47;7357505;19;20534;-66
2023/05/20 05:50:33;;;;;;;;;;;;;;;16.35;52.04;102336.66;7358848;19;19923;-65
2023/05/20 05:52:58;;;;;;;;;;;;;;;16.35;51.85;102338.41;7358743;19;19927;-65
2023/05/20 05:55:23;;;;;;;;;;;;;;;16.36;51.87;102345.41;7359845;19;19938;-66
2023/05/20 05:57:48;;;;;;;;;;;;;;;16.37;51.69;102341.00;7347294;19;20611;-66
2023/05/20 06:00:14;;;;;;;;;;;;;;;16.38;51.83;102333.09;7355384;19;20351;-65
2023/05/20 06:02:39;;;;;;;;;;;;;;;16.39;51.79;102333.97;7356710;19;20729;-65
2023/05/20 06:05:05;;;;;;;;;;;;;;;16.19;51.85;102290.41;7356432;19;19918;-66
2023/05/20 06:07:30;;;;;;;;;;;;;;;16.42;51.74;102328.59;7355494;19;19927;-66
2023/05/20 06:09:55;;;;;;;;;;;;;;;16.42;51.84;102332.09;7353320;19;19942;-66
2023/05/20 06:12:21;;;;;;;;;;;;;;;16.43;52.05;102336.50;7357322;19;20040;-65
2023/05/20 06:14:46;;;;;;;;;;;;;;;16.45;52.02;102333.81;7352121;19;19931;-66
2023/05/20 06:17:11;;;;;;;;;;;;;;;16.46;52.10;102325.00;7356355;19;20554;-63
2023/05/20 06:19:37;;;;;;;;;;;;;;;16.48;51.72;102331.13;7353084;19;19970;-65
2023/05/20 06:22:02;;;;;;;;;;;;;;;16.49;51.86;102330.22;7355128;19;19922;-66
2023/05/20 06:24:27;;;;;;;;;;;;;;;16.50;51.88;102326.69;7356234;19;19918;-65
2023/05/20 06:26:52;;;;;;;;;;;;;;;16.52;52.18;102330.16;7351512;19;20014;-66
2023/05/20 06:29:18;;;;;;;;;;;;;;;16.52;51.89;102324.88;7353501;19;19934;-65
2023/05/20 06:31:43;;;;;;;;;;;;;;;16.53;52.17;102338.03;7352872;19;19947;-66
2023/05/20 06:34:08;;;;;;;;;;;;;;;16.54;52.01;102331.00;7356065;19;19930;-65
2023/05/20 06:36:34;;;;;;;;;;;;;;;16.56;52.30;102337.09;7354284;19;20478;-66
2023/05/20 06:38:59;;;;;;;;;;;;;;;16.57;52.26;102336.19;7352161;19;19956;-65
2023/05/20 06:41:25;;;;;;;;;;;;;;;16.58;52.15;102341.44;7355252;19;19923;-66
2023/05/20 06:43:50;;;;;;;;;;;;;;;16.60;51.88;102344.03;7351632;19;20039;-63
2023/05/20 06:46:16;;;;;;;;;;;;;;;16.61;52.01;102345.78;7351198;19;19936;-66
2023/05/20 06:48:41;;;;;;;;;;;;;;;16.64;52.13;102344.84;7354550;19;19945;-66
2023/05/20 06:51:08;;;;;;;;;;;;;;;16.65;52.29;102336.03;7351646;19;19939;-66
2023/05/20 06:53:33;;;;;;;;;;;;;;;16.67;52.11;102340.38;7354588;19;19923;-66
2023/05/20 06:55:58;;;;;;;;;;;;;;;16.69;52.28;102335.94;7353610;19;20320;-65
2023/05/20 06:58:23;;;;;;;;;;;;;;;16.71;52.21;102339.44;7353975;19;19911;-66
2023/05/20 07:00:49;;;;;;;;;;;;;;;16.73;51.96;102344.69;7352947;19;20014;-66
2023/05/20 07:03:14;;;;;;;;;;;;;;;16.75;51.98;102338.47;7353338;19;19935;-66
2023/05/20 07:05:39;;;;;;;;;;;;;;;16.76;51.90;102334.91;7354474;19;19923;-65
2023/05/20 07:08:04;;;;;;;;;;;;;;;16.78;51.97;102335.78;7353202;19;19932;-66
2023/05/20 07:10:30;;;;;;;;;;;;;;;16.82;51.93;102334.78;7349533;19;19951;-64
2023/05/20 07:12:55;;;;;;;;;;;;;;;16.84;52.29;102337.41;7353557;19;20563;-66
2023/05/20 07:15:20;;;;;;;;;;;;;;;16.88;52.35;102343.44;7355552;19;19946;-67
2023/05/20 07:17:46;;;;;;;;;;;;;;;16.90;52.03;102341.66;7351182;19;19914;-66
2023/05/20 07:20:11;;;;;;;;;;;;;;;16.92;52.53;102337.22;7352032;19;20452;-66
2023/05/20 07:22:36;;;;;;;;;;;;;;;16.95;52.09;102331.88;7353582;19;19957;-65
2023/05/20 07:25:02;;;;;;;;;;;;;;;16.98;52.07;102337.06;7353774;19;19925;-66
2023/05/20 07:27:27;;;;;;;;;;;;;;;17.01;52.29;102339.66;7352902;19;19926;-65
2023/05/20 07:29:52;;;;;;;;;;;;;;;17.02;52.25;102341.38;7352018;19;19922;-66
2023/05/20 07:32:17;;;;;;;;;;;;;;;17.05;52.34;102341.31;7352107;19;19919;-65
2023/05/20 07:34:43;;;;;;;;;;;;;;;17.08;52.52;102338.59;7354482;19;19923;-66
2023/05/20 07:37:08;;;;;;;;;;;;;;;17.09;52.54;102338.56;7353075;19;19963;-66
2023/05/20 07:39:34;;;;;;;;;;;;;;;17.12;52.23;102342.88;7351221;19;19919;-66
2023/05/20 07:41:59;;;;;;;;;;;;;;;17.15;52.45;102348.13;7353832;19;19943;-65
2023/05/20 07:44:25;;;;;;;;;;;;;;;17.17;52.14;102348.94;7348578;19;19918;-66
2023/05/20 07:46:50;;;;;;;;;;;;;;;17.20;52.39;102343.59;7351392;19;19943;-66
2023/05/20 07:49:15;;;;;;;;;;;;;;;17.24;52.14;102357.59;7352920;19;19919;-65
2023/05/20 07:51:41;;;;;;;;;;;;;;;17.26;52.21;102361.91;7348869;19;19919;-66
2023/05/20 07:54:06;;;;;;;;;;;;;;;17.29;52.36;102351.28;7347416;19;19911;-65
2023/05/20 07:56:32;;;;;;;;;;;;;;;17.31;52.10;102354.75;7346146;19;19914;-66
2023/05/20 07:58:58;;;;;;;;;;;;;;;17.33;52.39;102352.94;7349219;19;19929;-66
2023/05/20 08:01:23;;;;;;;;;;;;;;;17.37;52.44;102354.59;7349408;19;19940;-66
2023/05/20 08:03:49;;;;;;;;;;;;;;;17.23;52.52;102318.88;7345907;19;19930;-66
2023/05/20 08:06:14;;;;;;;;;;;;;;;17.45;52.50;102362.34;7334616;19;19943;-66
2023/05/20 08:08:40;;;;;;;;;;;;;;;17.48;52.29;102350.81;7350268;19;19934;-66
2023/05/20 08:11:05;;;;;;;;;;;;;;;17.52;52.67;102358.63;7347106;19;19918;-66
2023/05/20 08:13:31;;;;;;;;;;;;;;;17.56;52.60;102354.16;7349802;19;19918;-65
2023/05/20 08:15:56;;;;;;;;;;;;;;;17.60;52.17;102350.53;7350511;19;20642;-66
2023/05/20 08:18:21;;;;;;;;;;;;;;;17.64;52.36;102344.25;7350702;19;19927;-66
2023/05/20 08:20:47;;;;;;;;;;;;;;;17.71;52.37;102348.47;7348686;19;19914;-66
2023/05/20 08:23:12;;;;;;;;;;;;;;;17.75;52.66;102344.00;7349286;19;19926;-66
2023/05/20 08:25:37;;;;;;;;;;;;;;;17.80;52.36;102345.63;7345929;19;19907;-65
2023/05/20 08:28:04;;;;;;;;;;;;;;;17.85;52.50;102342.84;7351049;19;20316;-66
2023/05/20 08:30:30;;;;;;;;;;;;;;;17.91;52.34;102342.69;7347149;19;19926;-66
2023/05/20 08:32:55;;;;;;;;;;;;;;;17.97;52.35;102339.00;7347334;19;19923;-66
2023/05/20 08:35:22;;;;;;;;;;;;;;;18.02;52.71;102342.38;7346906;19;19936;-66
2023/05/20 08:37:47;;;;;;;;;;;;;;;18.07;52.19;102343.13;7350761;19;19922;-66
2023/05/20 08:40:13;;;;;;;;;;;;;;;18.12;52.47;102343.88;7342655;19;19943;-66
2023/05/20 08:42:42;;;;;;;;;;;;;;;18.17;52.54;102344.59;7328771;19;19918;-66
2023/05/20 08:45:10;;;;;;;;;;;;;;;18.22;52.45;102336.53;7338543;19;19911;-66
2023/05/20 08:47:36;;;;;;;;;;;;;;;18.26;52.18;102331.13;7330959;19;19907;-66
2023/05/20 08:50:02;;;;;;;;;;;;;;;18.31;52.16;102329.22;7349000;19;19951;-66
2023/05/20 08:52:28;;;;;;;;;;;;;;;18.35;52.22;102325.56;7349717;19;19922;-65
2023/05/20 08:54:53;;;;;;;;;;;;;;;18.38;52.45;102320.19;7347173;19;19918;-66
2023/05/20 08:57:20;;;;;;;;;;;;;;;18.42;52.51;102324.47;7349273;19;19930;-65
2023/05/20 08:59:48;;;;;;;;;;;;;;;18.46;52.41;102321.75;7345824;19;19914;-66
2023/05/20 09:02:14;;;;;;;;;;;;;;;18.48;52.27;102319.91;7348200;19;19930;-66
2023/05/20 09:04:39;;;;;;;;;;;;;;;18.51;52.52;102319.84;7348273;19;20586;-66
2023/05/20 09:07:04;;;;;;;;;;;;;;;18.54;52.29;102322.38;7345130;19;20698;-66
2023/05/20 09:09:32;;;;;;;;;;;;;;;18.55;52.14;102317.06;7349362;19;19930;-66
2023/05/20 09:11:58;;;;;;;;;;;;;;;18.56;52.34;102318.78;7357332;19;19978;-65
2023/05/20 09:14:25;;;;;;;;;;;;;;;18.57;52.39;102309.06;7359916;19;20009;-66
2023/05/20 09:16:51;;;;;;;;;;;;;;;18.59;52.26;102312.50;7358572;19;20504;-66
2023/05/20 09:19:16;;;;;;;;;;;;;;;18.60;52.39;102308.94;7344612;19;19923;-66
2023/05/20 09:21:42;;;;;;;;;;;;;;;18.62;52.07;102309.78;7339395;19;19923;-66
2023/05/20 09:24:07;;;;;;;;;;;;;;;18.66;51.92;102314.06;7350626;19;19946;-66
2023/05/20 09:26:33;;;;;;;;;;;;;;;18.67;51.98;102307.84;7351056;19;19921;-66
2023/05/20 09:28:58;;;;;;;;;;;;;;;18.69;52.00;102311.34;7351973;19;19910;-66
2023/05/20 09:31:28;;;;;;;;;;;;;;;18.72;51.86;102303.31;7353213;19;19921;-65
2023/05/20 09:33:54;;;;;;;;;;;;;;;18.73;52.01;102305.06;7355846;19;19939;-65
2023/05/20 09:36:21;;;;;;;;;;;;;;;18.76;51.90;102310.25;7349026;19;20005;-66
2023/05/20 09:38:49;;;;;;;;;;;;;;;18.80;52.31;102309.22;7344625;19;19922;-66
2023/05/20 09:41:14;;;;;;;;;;;;;;;18.81;52.05;102308.34;7356327;19;19918;-67
2023/05/20 09:43:40;;;;;;;;;;;;;;;18.84;52.23;102308.22;7349334;19;20777;-66
2023/05/20 09:46:06;;;;;;;;;;;;;;;18.87;52.33;102308.13;7354405;19;19918;-66
2023/05/20 09:48:32;;;;;;;;;;;;;;;18.91;52.11;102307.13;7355975;19;19934;-66
2023/05/20 09:51:00;;;;;;;;;;;;;;;18.94;51.90;102300.84;7356433;19;19915;-66
2023/05/20 09:53:26;;;;;;;;;;;;;;;18.99;52.08;102311.31;7350977;19;19929;-66
2023/05/20 09:55:52;;;;;;;;;;;;;;;19.02;52.01;102305.91;7352674;19;19949;-66
2023/05/20 09:58:19;;;;;;;;;;;;;;;19.05;51.98;102304.00;7350277;19;19915;-66
2023/05/20 10:00:44;;;;;;;;;;;;;;;19.09;52.32;102297.72;7352530;19;19943;-66
2023/05/20 10:03:09;;;;;;;;;;;;;;;19.13;51.92;102298.47;7354740;19;19918;-66
2023/05/20 10:05:37;;;;;;;;;;;;;;;19.17;52.13;102305.41;7353115;19;19914;-66
2023/05/20 10:08:19;;;;;;;;;;;;;;;19.22;51.84;102303.47;7354385;19;20442;-66
2023/05/20 10:11:03;;;;;;;;;;;;;;;19.27;52.13;102298.91;7351123;19;20453;-66
2023/05/20 10:13:34;;;;;;;;;;;;;;;19.34;51.87;102296.91;7354819;19;19923;-66
2023/05/20 10:16:05;;;;;;;;;;;;;;;19.38;51.73;102304.69;7353462;19;19925;-66
2023/05/20 10:18:36;;;;;;;;;;;;;;;19.44;52.01;102296.53;7354258;19;19986;-66
2023/05/20 10:21:02;;;;;;;;;;;;;;;19.51;51.66;102298.97;7352577;19;19998;-66
2023/05/20 10:23:28;;;;;;;;;;;;;;;19.57;51.65;102306.72;7359818;19;19990;-66
2023/05/20 10:25:54;;;;;;;;;;;;;;;19.63;51.69;102298.59;7359176;19;19951;-66
2023/05/20 10:28:30;;;;;;;;;;;;;;;19.68;51.68;102294.84;7357867;19;19925;-66
2023/05/20 10:30:56;;;;;;;;;;;;;;;19.77;51.55;102301.63;7354561;19;19943;-66
2023/05/20 10:33:21;;;;;;;;;;;;;;;19.82;51.88;102294.38;7354317;19;19919;-66
2023/05/20 10:35:49;;;;;;;;;;;;;;;19.88;51.82;102303.88;7359645;19;19921;-66
2023/05/20 10:38:14;;;;;;;;;;;;;;;19.96;51.43;102296.50;7354248;19;19946;-66
2023/05/20 10:40:40;;;;;;;;;;;;;;;20.02;51.51;102284.78;7354855;19;19929;-66
2023/05/20 10:43:12;;;;;;;;;;;;;;;20.06;50.96;102286.41;7351561;19;19959;-63
2023/05/20 10:45:54;;;;;;;;;;;;;;;20.10;51.56;102283.59;7355724;19;19994;-66
2023/05/20 10:48:22;;;;;;;;;;;;;;;20.16;51.53;102283.34;7350815;19;19926;-66
2023/05/20 10:50:47;;;;;;;;;;;;;;;20.22;51.31;102287.56;7354803;19;19926;-65
2023/05/20 10:53:13;;;;;;;;;;;;;;;20.30;51.33;102290.81;7346604;19;19918;-66
2023/05/20 10:55:39;;;;;;;;;;;;;;;20.38;51.08;102278.13;7341811;19;19931;-66
2023/05/20 10:58:05;;;;;;;;;;;;;;;20.45;50.87;102279.59;7343513;19;19923;-66
2023/05/20 11:00:33;;;;;;;;;;;;;;;20.53;51.10;102273.16;7352088;19;19938;-66
2023/05/20 11:02:59;;;;;;;;;;;;;;;20.59;51.03;102272.94;7356805;19;20034;-66
2023/05/20 11:05:25;;;;;;;;;;;;;;;20.66;51.08;102282.38;7355367;19;19986;-66
2023/05/20 11:07:59;;;;;;;;;;;;;;;20.71;50.56;102280.38;7358278;19;19918;-66
2023/05/20 11:10:24;;;;;;;;;;;;;;;20.76;50.35;102275.75;7353876;19;19918;-66
2023/05/20 11:12:51;;;;;;;;;;;;;;;20.80;50.43;102279.16;7350669;19;19914;-66
2023/05/20 11:15:16;;;;;;;;;;;;;;;20.83;50.90;102279.88;7350753;19;20346;-66
2023/05/20 11:17:54;;;;;;;;;;;;;;;20.88;50.51;102282.34;7356226;19;19911;-66
2023/05/20 11:20:20;;;;;;;;;;;;;;;20.91;50.63;102267.16;7354109;19;19922;-66
2023/05/20 11:22:45;;;;;;;;;;;;;;;20.95;50.34;102268.78;7354540;19;20575;-66
2023/05/20 11:25:10;;;;;;;;;;;;;;;20.99;50.70;102269.53;7355010;19;19926;-66
2023/05/20 11:27:39;;;;;;;;;;;;;;;21.03;50.29;102273.75;7355394;19;19933;-66
2023/05/20 11:30:05;;;;;;;;;;;;;;;21.07;50.14;102266.53;7354642;19;19934;-66
2023/05/20 11:32:31;;;;;;;;;;;;;;;21.10;50.61;102264.63;7353646;19;19922;-66
2023/05/20 11:34:56;;;;;;;;;;;;;;;21.14;50.22;102268.03;7353795;19;19926;-66
2023/05/20 11:37:22;;;;;;;;;;;;;;;21.16;50.26;102264.34;7353718;19;19926;-66
2023/05/20 11:39:48;;;;;;;;;;;;;;;21.20;50.45;102258.00;7356977;19;19918;-66
2023/05/20 11:42:16;;;;;;;;;;;;;;;21.22;50.21;102260.56;7356811;19;20001;-66
2023/05/20 11:44:44;;;;;;;;;;;;;;;21.25;50.23;102248.03;7354320;19;19925;-66
2023/05/20 11:47:09;;;;;;;;;;;;;;;21.29;49.96;102250.53;7354348;19;20458;-66
2023/05/20 11:49:40;;;;;;;;;;;;;;;21.31;50.09;102254.03;7355533;19;19994;-66
2023/05/20 11:52:07;;;;;;;;;;;;;;;21.34;49.73;102249.47;7351482;19;19954;-66
2023/05/20 11:54:35;;;;;;;;;;;;;;;21.39;49.75;102246.59;7349958;19;19931;-66
2023/05/20 11:57:01;;;;;;;;;;;;;;;21.43;49.93;102249.03;7353748;19;20566;-66
2023/05/20 11:59:26;;;;;;;;;;;;;;;21.47;50.05;102245.34;7353470;19;19914;-66
2023/05/20 12:01:51;;;;;;;;;;;;;;;21.54;50.00;102245.06;7346007;19;19914;-66
2023/05/20 12:04:17;;;;;;;;;;;;;;;21.62;49.96;102242.94;7348955;19;19926;-66
2023/05/20 12:06:42;;;;;;;;;;;;;;;21.67;49.59;102239.13;7343318;19;19923;-66
2023/05/20 12:09:08;;;;;;;;;;;;;;;21.74;49.77;102239.72;7346587;19;19918;-66
2023/05/20 12:11:38;;;;;;;;;;;;;;;21.80;49.49;102235.94;7349657;19;19919;-66
2023/05/20 12:14:03;;;;;;;;;;;;;;;21.88;49.58;102234.63;7349753;19;19938;-66
2023/05/20 12:16:30;;;;;;;;;;;;;;;21.96;49.74;102237.81;7342500;19;19919;-66
2023/05/20 12:18:55;;;;;;;;;;;;;;;22.03;49.95;102239.25;7352770;19;19923;-66
2023/05/20 12:21:20;;;;;;;;;;;;;;;22.12;49.40;102239.81;7345735;19;20331;-66
2023/05/20 12:23:46;;;;;;;;;;;;;;;22.17;49.69;102235.13;7353708;19;19939;-66
2023/05/20 12:26:11;;;;;;;;;;;;;;;22.23;49.17;102240.16;7354570;19;19942;-66
2023/05/20 12:28:36;;;;;;;;;;;;;;;22.29;49.39;102234.53;7355851;19;19971;-66